Monday, February 19, 2018, 4:54 AM EST
Back to Local

KDCA, Washington National Airport

Location: Arlington, VA, United States Lat: 38.85
Local Time: 4:54 AM EST ( 9:54 GMT) Lon: -77.033
Time Zone: US/Eastern Elev: 16 ft

Show me the last for .
Show Decoded

2018-02-19 03:52 METAR KDCA 190852Z 22004KT 10SM OVC050 04/01 A3050 RMK AO2 SLP326 T00440011
                 54000 =
2018-02-19 02:52 METAR KDCA 190752Z 18009KT 10SM OVC049 05/02 A3050 RMK AO2 SLP326 T00500017 =
2018-02-19 01:52 METAR KDCA 190652Z 17010KT 10SM BKN050 OVC250 04/01 A3050 RMK AO2 SLP326
                 T00440011 =
2018-02-19 00:52 METAR KDCA 190552Z 16008KT 10SM FEW140 BKN250 04/01 A3050 RMK AO2 SLP326
                 T00440006 10078 20044 51002 =
2018-02-18 23:52 METAR KDCA 190452Z 16008KT 10SM FEW140 BKN250 05/00 A3050 RMK AO2 SLP327
                 T00500000 401060006 =
2018-02-18 22:52 METAR KDCA 190352Z 15004KT 10SM BKN250 05/00 A3050 RMK AO2 SLP328 T00500000 =
2018-02-18 21:52 METAR KDCA 190252Z 17004KT 10SM BKN250 05/00 A3049 RMK AO2 SLP325 T00500000
                 53014 =
2018-02-18 20:52 METAR KDCA 190152Z 13005KT 10SM BKN250 06/00 A3047 RMK AO2 SLP318 T00610000 =
2018-02-18 19:52 METAR KDCA 190052Z 12008KT 10SM BKN250 06/01 A3045 RMK AO2 SLP310 T00610006 =
2018-02-18 18:52 METAR KDCA 182352Z 07004KT 10SM BKN250 08/01 A3045 RMK AO2 SLP311 T00780006
                 10106 20078 53010 =
2018-02-18 17:52 METAR KDCA 182252Z 02004KT 10SM BKN250 08/M01 A3043 RMK AO2 SLP304 T00831006 =
2018-02-18 16:52 METAR KDCA 182152Z 06004KT 10SM FEW060 BKN250 10/01 A3042 RMK AO2 SLP302
                 T01000006 =
2018-02-18 15:52 METAR KDCA 182052Z 07004KT 10SM FEW050 BKN250 11/M01 A3042 RMK AO2 SLP300
                 T01061011 55005 =
2018-02-18 14:52 METAR KDCA 181952Z 07003KT 10SM FEW045 SCT250 10/M01 A3040 RMK AO2 SLP295
                 T01001011 =
2018-02-18 13:52 METAR KDCA 181852Z 01007KT 10SM FEW046 11/M01 A3040 RMK AO2 SLP295 T01061006 =
2018-02-18 12:52 METAR KDCA 181752Z 30007G15KT 10SM SCT045 08/M02 A3043 RMK AO2 SLP305 T00831017
                 10094 20006 51015 =
2018-02-18 11:52 METAR KDCA 181652Z 34007KT 10SM SCT050 SCT120 08/M01 A3043 RMK AO2 SLP303
                 T00831006 =
2018-02-18 10:52 METAR KDCA 181552Z 34008G15KT 10SM SCT050 08/02 A3041 RMK AO2 SLP296 T00830017 =
2018-02-18 09:52 METAR KDCA 181452Z 23004KT 10SM OVC050 04/02 A3039 RMK AO2 SLP290 T00440022
                 51047 =
2018-02-18 08:52 METAR KDCA 181352Z 20004KT 10SM OVC048 03/02 A3035 RMK AO2 SLP276 T00280017 =
2018-02-18 07:52 METAR KDCA 181252Z 24004KT 10SM FEW008 SCT047 SCT250 02/01 A3030 RMK AO2 SLP259
                 T00220011 =
2018-02-18 06:52 METAR KDCA 181152Z 22006KT 7SM FEW008 SCT047 SCT250 01/00 A3025 RMK AO2 SLP243
                 60000 70042 T00110000 10028 20006 53045 =
2018-02-18 05:52 METAR KDCA 181052Z 23004KT 10SM FEW007 SCT040 01/01 A3020 RMK AO2 SLP227
                 T00110006 =

Support USWX by starting your Amazon purchase here.